Time;durP1;ratioP1;P1;durP2;ratioP2;P2;SDS_P1;SDS_P2;PMS_P1;PMS_P2;Temp;Humidity;BMP_temperature;BMP_pressure;BME280_temperature;BME280_humidity;BME280_pressure;Samples;Min_cycle;Max_cycle;Signal;HPM_P1;HPM_P2
2022/04/23 00:00:33;;;;;;;17.40;10.07;;;;;;;9.40;70.90;95041.75;5071500;28;20075;-77
2022/04/23 00:03:01;;;;;;;16.27;10.90;;;;;;;9.32;71.00;95042.66;5071224;28;20737;-77
2022/04/23 00:05:28;;;;;;;13.73;9.77;;;;;;;9.29;71.51;95043.34;5071402;28;20563;-77
2022/04/23 00:07:54;;;;;;;22.48;11.18;;;;;;;9.34;71.60;95043.09;5070870;28;20048;-78
2022/04/23 00:10:22;;;;;;;23.02;11.25;;;;;;;9.33;71.23;95039.59;5071249;28;20048;-77
2022/04/23 00:12:48;;;;;;;24.35;10.77;;;;;;;9.25;71.41;95035.09;5070001;28;20073;-77
2022/04/23 00:15:15;;;;;;;14.00;10.15;;;;;;;9.26;71.59;95036.69;5069737;28;20084;-77
2022/04/23 00:17:43;;;;;;;15.20;11.05;;;;;;;9.30;71.51;95036.78;5071143;28;20048;-77
2022/04/23 00:20:12;;;;;;;14.63;10.88;;;;;;;9.31;71.39;95036.44;5070352;28;20135;-77
2022/04/23 00:22:40;;;;;;;24.77;12.15;;;;;;;9.29;71.42;95032.47;5071008;28;20049;-77
2022/04/23 00:25:08;;;;;;;20.38;12.38;;;;;;;9.32;71.30;95027.16;5070232;28;20056;-77
2022/04/23 00:27:34;;;;;;;15.85;11.65;;;;;;;9.34;71.32;95026.81;5071358;28;20539;-77
2022/04/23 00:30:01;;;;;;;15.00;10.68;;;;;;;9.33;71.13;95022.50;5070323;28;20511;-77
2022/04/23 00:32:27;;;;;;;22.13;11.80;;;;;;;9.33;71.26;95030.66;5071145;28;20565;-77
2022/04/23 00:34:54;;;;;;;16.58;12.05;;;;;;;9.22;71.28;95026.84;5070415;28;20052;-77
2022/04/23 00:37:22;;;;;;;17.38;11.93;;;;;;;9.16;71.50;95029.00;5068109;28;20051;-77
2022/04/23 00:39:48;;;;;;;17.23;11.90;;;;;;;9.20;71.30;95034.53;5067564;28;20052;-77
2022/04/23 00:42:15;;;;;;;15.75;11.13;;;;;;;9.23;71.06;95028.41;5067390;28;20605;-76
2022/04/23 00:44:41;;;;;;;15.52;10.35;;;;;;;9.24;71.50;95025.38;5067610;28;20068;-77
2022/04/23 00:47:08;;;;;;;17.42;11.68;;;;;;;9.19;70.87;95028.31;5067523;28;20055;-76
2022/04/23 00:49:35;;;;;;;26.65;11.43;;;;;;;9.13;71.41;95030.47;5068275;28;20889;-77
2022/04/23 00:52:02;;;;;;;14.98;10.50;;;;;;;9.10;71.53;95031.16;5067199;28;20056;-77
2022/04/23 00:54:30;;;;;;;15.45;10.75;;;;;;;9.07;71.36;95026.38;5068179;28;20048;-76
2022/04/23 00:56:58;;;;;;;18.58;10.98;;;;;;;9.05;71.51;95023.22;5067326;28;20145;-77
2022/04/23 00:59:24;;;;;;;17.63;11.68;;;;;;;9.06;72.27;95027.53;5068242;28;20048;-76
2022/04/23 01:01:53;;;;;;;28.92;12.75;;;;;;;9.02;71.93;95029.31;5067671;28;20427;-76
2022/04/23 01:04:19;;;;;;;15.85;10.77;;;;;;;8.99;72.13;95029.22;5067549;28;20816;-77
2022/04/23 01:06:47;;;;;;;16.35;11.02;;;;;;;8.90;72.29;95023.91;5067402;28;20045;-77
2022/04/23 01:09:13;;;;;;;16.27;10.85;;;;;;;8.92;72.41;95032.50;5066265;28;20060;-76
2022/04/23 01:11:42;;;;;;;17.77;12.00;;;;;;;8.93;72.83;95025.97;5066640;28;20679;-76
2022/04/23 01:14:09;;;;;;;16.85;11.30;;;;;;;8.95;72.60;95026.41;5064207;28;20048;-76
2022/04/23 01:16:36;;;;;;;17.25;11.40;;;;;;;8.99;72.76;95030.03;5068068;28;20048;-77
2022/04/23 01:19:03;;;;;;;34.60;12.77;;;;;;;8.99;72.55;95023.81;5065731;28;20055;-77
2022/04/23 01:21:31;;;;;;;21.23;11.90;;;;;;;8.99;72.75;95019.16;5068285;28;20060;-77
2022/04/23 01:23:58;;;;;;;34.78;13.35;;;;;;;8.98;72.48;95028.44;5067324;28;20056;-77
2022/04/23 01:26:26;;;;;;;17.38;12.07;;;;;;;8.98;72.91;95023.03;5067278;28;20044;-77
2022/04/23 01:28:54;;;;;;;19.17;12.48;;;;;;;8.96;72.92;95011.69;5068651;28;20048;-76
2022/04/23 01:31:20;;;;;;;24.95;13.73;;;;;;;8.91;73.33;95006.47;5068629;28;20044;-77
2022/04/23 01:33:47;;;;;;;29.98;13.32;;;;;;;8.92;73.21;95010.00;5068939;28;20427;-77
2022/04/23 01:36:14;;;;;;;21.10;12.93;;;;;;;8.93;73.38;95014.28;5068213;28;20048;-76
2022/04/23 01:38:42;;;;;;;22.77;13.57;;;;;;;8.89;73.49;95014.97;5069017;28;20519;-77
2022/04/23 01:41:08;;;;;;;43.85;12.65;;;;;;;8.91;73.49;95021.97;5068321;28;20044;-76
2022/04/23 01:43:35;;;;;;;21.13;13.05;;;;;;;8.93;73.75;95012.38;5076050;28;20040;-77
2022/04/23 01:46:01;;;;;;;30.17;13.43;;;;;;;9.02;73.52;95013.03;5071104;28;20649;-77
2022/04/23 01:48:28;;;;;;;21.17;12.95;;;;;;;9.04;73.14;95018.94;5066702;28;20056;-77
2022/04/23 01:50:55;;;;;;;26.73;12.68;;;;;;;9.12;72.97;95028.88;5065938;28;20055;-76
2022/04/23 01:53:22;;;;;;;27.35;13.70;;;;;;;9.16;72.79;95020.84;5066030;28;20059;-77
2022/04/23 01:55:52;;;;;;;19.90;12.82;;;;;;;9.22;72.76;95024.13;5066185;28;20064;-77
2022/04/23 01:58:19;;;;;;;25.73;13.88;;;;;;;9.26;72.86;95022.31;5065314;28;20048;-77
2022/04/23 02:00:45;;;;;;;19.35;12.30;;;;;;;9.27;72.62;95035.53;5066773;28;20070;-77
2022/04/23 02:03:12;;;;;;;16.98;11.35;;;;;;;9.26;72.45;95035.88;5065009;28;20045;-76
2022/04/23 02:05:38;;;;;;;22.58;12.35;;;;;;;9.27;72.42;95045.63;5066579;28;20687;-77
2022/04/23 02:08:06;;;;;;;36.13;13.75;;;;;;;9.29;72.44;95044.16;5064941;28;20467;-77
2022/04/23 02:10:33;;;;;;;19.30;12.93;;;;;;;9.32;72.11;95050.81;5066204;28;20048;-76
2022/04/23 02:13:01;;;;;;;25.75;14.73;;;;;;;9.34;72.24;95052.06;5063486;28;20052;-76
2022/04/23 02:15:27;;;;;;;22.45;14.10;;;;;;;9.38;72.25;95038.59;5066044;28;20048;-77
2022/04/23 02:17:53;;;;;;;25.95;14.73;;;;;;;9.38;71.92;95041.28;5065876;28;20048;-77
2022/04/23 02:20:20;;;;;;;26.20;14.18;;;;;;;9.41;72.21;95037.91;5064839;28;20059;-77
2022/04/23 02:22:47;;;;;;;21.27;13.52;;;;;;;9.39;72.14;95040.16;5066017;28;20152;-77
2022/04/23 02:25:15;;;;;;;28.10;14.68;;;;;;;9.38;72.11;95035.88;5064661;28;20053;-77
2022/04/23 02:27:47;;;;;;;25.50;14.65;;;;;;;9.41;72.25;95029.75;5065740;28;20052;-76
2022/04/23 02:30:19;;;;;;;26.00;13.70;;;;;;;9.46;71.91;95032.25;5064063;28;20083;-77
2022/04/23 02:32:47;;;;;;;20.47;13.37;;;;;;;9.48;72.31;95040.81;5065971;28;20044;-77
2022/04/23 02:35:14;;;;;;;27.70;13.32;;;;;;;9.51;71.95;95042.88;5064165;28;20183;-76
2022/04/23 02:37:42;;;;;;;17.85;12.25;;;;;;;9.49;71.69;95042.41;5065182;28;20044;-77
2022/04/23 02:40:09;;;;;;;32.33;13.55;;;;;;;9.46;71.31;95037.66;5064446;28;20066;-77
2022/04/23 02:42:37;;;;;;;27.95;12.85;;;;;;;9.45;71.47;95030.66;5064770;28;20048;-77
2022/04/23 02:45:04;;;;;;;17.75;11.52;;;;;;;9.39;71.13;95030.06;5062900;28;20109;-77
2022/04/23 02:47:42;;;;;;;15.85;11.35;;;;;;;9.31;71.45;95038.38;5064115;28;20091;-77
2022/04/23 02:50:09;;;;;;;20.98;12.45;;;;;;;9.30;71.66;95028.66;5065013;28;20045;-77
2022/04/23 02:52:36;;;;;;;18.73;12.77;;;;;;;9.26;72.07;95027.75;5064510;28;20064;-76
2022/04/23 02:55:02;;;;;;;17.88;12.27;;;;;;;9.25;71.99;95026.16;5065496;28;20060;-77
2022/04/23 02:57:29;;;;;;;21.17;11.40;;;;;;;9.28;72.18;95028.19;5065115;28;20041;-78
2022/04/23 02:59:55;;;;;;;30.73;13.30;;;;;;;9.26;72.01;95023.09;5064582;28;20055;-77
2022/04/23 03:02:22;;;;;;;17.42;12.45;;;;;;;9.24;71.80;95030.81;5064713;28;20064;-77
2022/04/23 03:04:51;;;;;;;22.02;12.65;;;;;;;9.23;72.04;95023.78;5064458;28;20052;-78
2022/04/23 03:07:18;;;;;;;18.77;12.63;;;;;;;9.21;72.34;95019.81;5064786;28;20068;-76
2022/04/23 03:09:45;;;;;;;20.27;12.88;;;;;;;9.22;71.73;95026.84;5064249;28;20125;-77
2022/04/23 03:12:12;;;;;;;19.83;12.27;;;;;;;9.20;72.14;95015.53;5064533;28;20045;-77
2022/04/23 03:14:38;;;;;;;20.90;13.23;;;;;;;9.20;72.14;95018.25;5062131;28;20094;-77
2022/04/23 03:17:05;;;;;;;18.67;12.35;;;;;;;9.22;72.31;95018.69;5065005;28;20410;-78
2022/04/23 03:19:31;;;;;;;40.85;13.68;;;;;;;9.20;72.11;95015.53;5064187;28;20060;-77
2022/04/23 03:22:00;;;;;;;17.40;12.25;;;;;;;9.15;72.49;95011.91;5064698;28;20056;-77
2022/04/23 03:24:26;;;;;;;18.80;13.20;;;;;;;9.12;72.42;95009.88;5063945;28;20044;-77
2022/04/23 03:26:53;;;;;;;19.50;13.48;;;;;;;9.14;72.43;95014.97;5064919;28;20135;-77
2022/04/23 03:29:21;;;;;;;24.20;13.88;;;;;;;9.14;72.60;95010.31;5064626;28;20044;-77
2022/04/23 03:31:48;;;;;;;19.83;13.93;;;;;;;9.19;72.57;95014.75;5064432;28;20061;-80
2022/04/23 03:34:15;;;;;;;24.52;14.07;;;;;;;9.25;72.47;95020.72;5065022;28;20801;-78
2022/04/23 03:36:41;;;;;;;21.80;14.35;;;;;;;9.20;72.51;95013.59;5065531;28;20048;-77
2022/04/23 03:39:10;;;;;;;23.00;14.18;;;;;;;9.18;72.54;95020.50;5065373;28;20053;-78
2022/04/23 03:41:37;;;;;;;20.65;14.65;;;;;;;9.19;72.69;95020.19;5063035;28;20037;-77
2022/04/23 03:44:03;;;;;;;21.40;14.20;;;;;;;9.25;72.47;95020.72;5066847;28;20045;-76
2022/04/23 03:46:30;;;;;;;21.48;14.70;;;;;;;9.28;72.25;95025.47;5075428;28;20072;-76
2022/04/23 03:48:57;;;;;;;47.90;15.82;;;;;;;9.27;72.26;95019.25;5068105;28;20718;-77
2022/04/23 03:51:23;;;;;;;20.52;13.25;;;;;;;9.29;72.01;95021.59;5063805;28;20048;-77
2022/04/23 03:53:51;;;;;;;21.77;13.88;;;;;;;9.32;72.35;95023.66;5064192;28;20064;-78
2022/04/23 03:56:19;;;;;;;22.08;14.05;;;;;;;9.28;71.92;95022.75;5064317;28;20048;-76
2022/04/23 03:58:46;;;;;;;21.70;14.10;;;;;;;9.29;72.10;95021.59;5064132;28;20045;-77
2022/04/23 04:01:12;;;;;;;22.15;13.98;;;;;;;9.28;72.11;95020.03;5064492;28;20056;-77
2022/04/23 04:03:39;;;;;;;18.48;13.35;;;;;;;9.30;71.88;95023.22;5063938;28;20063;-77
2022/04/23 04:06:05;;;;;;;22.52;14.48;;;;;;;9.28;72.09;95031.69;5064441;28;20478;-77
2022/04/23 04:08:32;;;;;;;20.50;14.07;;;;;;;9.23;72.26;95029.19;5064035;28;20058;-76
2022/04/23 04:10:58;;;;;;;19.90;13.75;;;;;;;9.25;72.34;95023.44;5065079;28;20056;-76
2022/04/23 04:13:27;;;;;;;22.27;14.18;;;;;;;9.30;72.42;95023.22;5065654;28;20052;-75
2022/04/23 04:15:53;;;;;;;21.98;14.57;;;;;;;9.32;72.44;95027.16;5067989;28;20198;-77
2022/04/23 04:18:20;;;;;;;22.85;14.65;;;;;;;9.31;72.36;95009.28;5067677;28;20159;-78
2022/04/23 04:20:49;;;;;;;22.33;15.13;;;;;;;9.26;72.41;95011.44;5067216;28;20646;-77
2022/04/23 04:23:15;;;;;;;31.30;15.77;;;;;;;9.24;72.53;95008.25;5067691;28;20076;-77
2022/04/23 04:25:42;;;;;;;24.17;14.75;;;;;;;9.19;72.74;95003.06;5067342;28;20045;-77
2022/04/23 04:28:09;;;;;;;24.52;15.23;;;;;;;9.15;72.94;95001.03;5067624;28;20064;-78
2022/04/23 04:33:17;;;;;;;23.65;16.13;;;;;;;9.12;73.18;95012.56;5066358;28;20051;-77
2022/04/23 04:35:43;;;;;;;23.77;15.32;;;;;;;9.13;73.40;95019.63;5067783;28;20044;-77
2022/04/23 04:38:10;;;;;;;23.17;14.85;;;;;;;9.09;73.73;95018.72;5066904;28;20651;-77
2022/04/23 04:40:36;;;;;;;26.85;17.27;;;;;;;9.08;73.52;95014.41;5067870;28;20392;-77
2022/04/23 04:43:03;;;;;;;25.95;16.52;;;;;;;9.13;73.49;95025.03;5064231;28;20048;-77
2022/04/23 04:45:29;;;;;;;27.77;16.88;;;;;;;9.14;73.19;95032.06;5068113;28;20040;-77
2022/04/23 04:47:57;;;;;;;25.90;16.08;;;;;;;9.15;73.59;95027.41;5066770;28;20055;-77
2022/04/23 04:50:24;;;;;;;26.40;16.73;;;;;;;9.20;73.60;95021.75;5067487;28;20055;-77
2022/04/23 04:52:50;;;;;;;45.40;17.35;;;;;;;9.23;73.40;95025.69;5066297;28;20052;-78
2022/04/23 04:55:17;;;;;;;26.33;14.98;;;;;;;9.11;73.26;95018.34;5067166;28;20052;-77
2022/04/23 04:57:44;;;;;;;24.77;15.60;;;;;;;9.14;73.91;95009.53;5066778;28;20048;-77
2022/04/23 05:00:11;;;;;;;25.65;15.52;;;;;;;9.14;73.94;95004.91;5066197;28;20632;-77
2022/04/23 05:02:37;;;;;;;25.27;15.93;;;;;;;9.14;73.59;95004.91;5066849;28;20045;-77
2022/04/23 05:05:07;;;;;;;23.15;15.55;;;;;;;9.11;73.93;95000.13;5066083;28;20055;-77
2022/04/23 05:07:33;;;;;;;27.58;16.00;;;;;;;9.12;74.01;95007.16;5067510;28;20064;-76
2022/04/23 05:10:00;;;;;;;24.70;15.82;;;;;;;9.14;74.30;95015.75;5067000;28;20048;-76
2022/04/23 05:12:27;;;;;;;23.40;15.05;;;;;;;9.14;74.31;95021.19;5065255;28;20067;-76
2022/04/23 05:14:53;;;;;;;23.05;15.73;;;;;;;9.17;74.14;95018.91;5067038;28;20057;-77
2022/04/23 05:17:20;;;;;;;24.25;16.30;;;;;;;9.16;74.04;95012.69;5067151;28;20102;-76
2022/04/23 05:19:46;;;;;;;24.77;16.50;;;;;;;9.20;74.34;95001.94;5067181;28;20048;-78
2022/04/23 05:22:14;;;;;;;31.00;17.25;;;;;;;9.23;74.17;95007.47;5065407;28;20060;-76
2022/04/23 05:24:41;;;;;;;23.45;15.88;;;;;;;9.27;74.26;95002.94;5066661;28;20051;-76
2022/04/23 05:27:07;;;;;;;31.63;18.50;;;;;;;9.33;74.10;95000.78;5065930;28;20048;-77
2022/04/23 05:29:34;;;;;;;20.85;15.13;;;;;;;9.42;73.62;95001.44;5067185;28;20036;-77
2022/04/23 05:32:00;;;;;;;24.08;16.00;;;;;;;9.38;73.88;95008.69;5066709;28;20056;-77
2022/04/23 05:34:28;;;;;;;24.27;15.13;;;;;;;9.45;73.45;95008.09;5066674;28;20561;-76
2022/04/23 05:36:54;;;;;;;22.42;15.82;;;;;;;9.46;73.59;95015.94;5066116;28;20055;-76
2022/04/23 05:39:22;;;;;;;21.15;14.70;;;;;;;9.49;73.41;95014.44;5066359;28;20048;-76
2022/04/23 05:41:49;;;;;;;23.98;16.10;;;;;;;9.46;73.18;95020.59;5063722;28;20052;-77
2022/04/23 05:44:15;;;;;;;22.02;15.40;;;;;;;9.46;72.92;95024.09;5067670;28;20045;-77
2022/04/23 05:46:42;;;;;;;23.35;15.15;;;;;;;9.44;73.38;95022.84;5071642;28;20040;-77
2022/04/23 05:49:08;;;;;;;26.42;16.83;;;;;;;9.40;73.19;95022.75;5079726;28;20044;-76
2022/04/23 05:51:35;;;;;;;24.25;15.50;;;;;;;9.41;72.98;95035.19;5068163;28;20055;-76
2022/04/23 05:54:02;;;;;;;23.48;16.48;;;;;;;9.40;73.47;95033.63;5066047;28;20052;-76
2022/04/23 05:56:30;;;;;;;27.33;16.63;;;;;;;9.45;73.26;95030.66;5066800;28;20539;-76
2022/04/23 05:58:56;;;;;;;28.90;17.42;;;;;;;9.49;73.01;95026.09;5065631;28;20052;-77
2022/04/23 06:01:23;;;;;;;25.02;16.10;;;;;;;9.50;72.78;95027.72;5066266;28;20106;-77
2022/04/23 06:03:50;;;;;;;25.25;16.65;;;;;;;9.51;73.03;95023.84;5065436;28;20904;-77
2022/04/23 06:06:16;;;;;;;26.27;16.27;;;;;;;9.55;73.01;95013.88;5065950;28;20393;-76
2022/04/23 06:08:43;;;;;;;25.55;17.35;;;;;;;9.53;72.69;95027.00;5065876;28;20458;-76
2022/04/23 06:11:09;;;;;;;22.27;15.68;;;;;;;9.55;72.82;95018.50;5063887;28;20057;-75
2022/04/23 06:13:37;;;;;;;22.35;15.15;;;;;;;9.59;72.83;95017.47;5065743;28;20059;-77
2022/04/23 06:16:04;;;;;;;23.85;15.55;;;;;;;9.57;72.80;95017.03;5065342;28;20053;-76
2022/04/23 06:18:31;;;;;;;23.40;16.33;;;;;;;9.61;72.52;95019.88;5065911;28;20060;-76
2022/04/23 06:20:57;;;;;;;25.33;16.33;;;;;;;9.61;72.60;95022.59;5065629;28;20055;-79
2022/04/23 06:23:27;;;;;;;21.38;15.32;;;;;;;9.64;72.32;95011.78;5066359;28;20049;-76
2022/04/23 06:25:53;;;;;;;26.23;17.33;;;;;;;9.66;72.57;95020.41;5065870;28;20057;-76
2022/04/23 06:28:20;;;;;;;27.65;16.98;;;;;;;9.65;72.89;95016.09;5066233;28;20102;-77
2022/04/23 06:30:48;;;;;;;23.83;16.60;;;;;;;9.70;73.02;95019.72;5066661;28;20547;-76
2022/04/23 06:33:15;;;;;;;26.17;16.77;;;;;;;9.77;73.16;95019.94;5066351;28;20503;-76
2022/04/23 06:35:41;;;;;;;25.55;16.65;;;;;;;9.82;72.04;95016.97;5067385;28;20045;-76
2022/04/23 06:38:08;;;;;;;23.70;16.48;;;;;;;9.90;71.83;95024.19;5064270;28;20415;-76
2022/04/23 06:40:35;;;;;;;35.85;17.40;;;;;;;9.90;71.66;95018.75;5046053;28;20056;-76
2022/04/23 06:43:02;;;;;;;25.40;17.15;;;;;;;9.96;71.66;95014.63;5057867;28;20627;-76
2022/04/23 06:45:29;;;;;;;29.67;16.75;;;;;;;10.04;72.34;95013.69;5066114;28;20048;-76
2022/04/23 06:48:04;;;;;;;26.80;17.35;;;;;;;10.05;71.12;95015.28;5065135;28;20072;-77
2022/04/23 06:50:31;;;;;;;24.95;16.98;;;;;;;10.05;70.72;95011.78;5065910;28;20044;-76
2022/04/23 06:52:57;;;;;;;24.30;17.10;;;;;;;10.09;70.97;95008.00;5065031;28;20567;-77
2022/04/23 06:55:24;;;;;;;26.77;17.45;;;;;;;10.10;71.04;95009.59;5065921;28;20047;-77
2022/04/23 06:57:50;;;;;;;24.95;17.63;;;;;;;10.10;70.79;95006.88;5067196;28;20079;-77
2022/04/23 07:00:17;;;;;;;24.92;17.65;;;;;;;10.11;70.44;95003.00;5066977;28;20095;-79
2022/04/23 07:02:43;;;;;;;28.00;16.85;;;;;;;10.16;70.79;95005.47;5067423;28;20048;-77
2022/04/23 07:05:11;;;;;;;26.08;16.60;;;;;;;10.21;70.44;94996.28;5065197;28;20044;-76
2022/04/23 07:07:38;;;;;;;23.85;16.02;;;;;;;10.25;70.50;95001.84;5066465;28;20508;-77
2022/04/23 07:10:06;;;;;;;25.63;16.73;;;;;;;10.31;70.53;95001.22;5064476;28;20048;-77
2022/04/23 07:12:33;;;;;;;26.75;17.15;;;;;;;10.38;70.16;95003.34;5063613;28;20055;-77
2022/04/23 07:14:59;;;;;;;22.55;15.95;;;;;;;10.47;69.55;95009.41;5064731;28;20052;-77
2022/04/23 07:17:26;;;;;;;21.25;15.63;;;;;;;10.48;69.70;95011.00;5065150;28;20044;-77
2022/04/23 07:19:54;;;;;;;25.20;17.23;;;;;;;10.56;69.04;95007.31;5064755;28;20082;-77
2022/04/23 07:22:22;;;;;;;25.88;17.17;;;;;;;10.54;69.11;95006.88;5064514;28;20106;-77
2022/04/23 07:24:50;;;;;;;25.88;17.52;;;;;;;10.53;69.11;95013.47;5065110;28;20055;-77
2022/04/23 07:27:16;;;;;;;24.33;16.98;;;;;;;10.63;69.26;95007.50;5064601;28;20110;-78
2022/04/23 07:29:43;;;;;;;26.30;17.25;;;;;;;10.72;68.95;95001.88;5065087;28;20051;-77
2022/04/23 07:32:09;;;;;;;24.58;16.67;;;;;;;10.80;69.02;95011.00;5063958;28;20056;-77
2022/04/23 07:37:33;;;;;;;25.02;16.80;;;;;;;10.84;67.89;95022.78;5064053;28;20450;-76
2022/04/23 07:40:05;;;;;;;26.42;17.75;;;;;;;10.84;68.36;95011.88;5064967;28;20056;-77
2022/04/23 07:42:32;;;;;;;24.50;16.98;;;;;;;10.94;68.47;95014.88;5062429;28;20081;-77
2022/04/23 07:44:59;;;;;;;29.33;17.20;;;;;;;11.01;67.89;95014.25;5064966;28;20213;-76
2022/04/23 07:47:27;;;;;;;22.85;16.40;;;;;;;11.08;67.30;95008.19;5070400;28;20415;-77
2022/04/23 07:49:54;;;;;;;24.10;15.85;;;;;;;11.17;67.73;95004.13;5077511;28;20058;-76
2022/04/23 07:52:21;;;;;;;23.58;16.88;;;;;;;11.29;67.76;95002.44;5075057;28;20060;-76
2022/04/23 07:54:48;;;;;;;26.45;17.50;;;;;;;11.41;67.11;95007.75;5068964;28;20515;-76
2022/04/23 07:57:21;;;;;;;24.52;17.17;;;;;;;11.37;66.83;95004.16;5070170;28;20591;-77
2022/04/23 07:59:48;;;;;;;25.83;16.85;;;;;;;11.40;66.73;95006.19;5069545;28;20577;-76
2022/04/23 08:02:14;;;;;;;25.83;15.93;;;;;;;11.38;66.57;95003.00;5068680;28;20048;-77
2022/04/23 08:04:41;;;;;;;27.05;17.17;;;;;;;11.34;66.46;95002.16;5069981;28;20458;-76
2022/04/23 08:07:08;;;;;;;26.73;16.83;;;;;;;11.31;66.56;94997.41;5068798;28;20048;-78
2022/04/23 08:09:39;;;;;;;25.40;15.93;;;;;;;11.28;65.60;94998.13;5069488;28;20052;-77
2022/04/23 08:12:07;;;;;;;25.02;15.77;;;;;;;11.20;66.59;95003.41;5064909;28;20529;-77
2022/04/23 08:14:36;;;;;;;24.40;15.63;;;;;;;11.26;66.58;95008.59;5068530;28;20488;-76
2022/04/23 08:17:02;;;;;;;25.45;15.30;;;;;;;11.22;66.46;95001.13;5066660;28;20106;-77
2022/04/23 08:19:29;;;;;;;23.20;14.70;;;;;;;11.24;66.66;95003.50;5068469;28;20049;-77
2022/04/23 08:21:56;;;;;;;37.00;17.30;;;;;;;11.19;66.84;94996.38;5067422;28;20055;-77
2022/04/23 08:24:22;;;;;;;24.20;15.90;;;;;;;11.23;66.96;94997.25;5067634;28;20551;-77
2022/04/23 08:26:49;;;;;;;24.17;16.33;;;;;;;11.27;66.96;94997.31;5068283;28;20052;-76
2022/04/23 08:32:00;;;;;;;24.10;15.55;;;;;;;11.34;66.22;94991.28;5067713;28;20047;-77
2022/04/23 08:34:27;;;;;;;24.70;15.93;;;;;;;11.41;66.28;94988.69;5066798;28;20068;-76
2022/04/23 08:36:54;;;;;;;24.80;15.10;;;;;;;11.38;66.09;94989.38;5068158;28;20055;-77
2022/04/23 08:39:20;;;;;;;22.83;15.77;;;;;;;11.42;66.51;94995.72;5067076;28;20052;-77
2022/04/23 08:41:47;;;;;;;24.42;15.27;;;;;;;11.37;66.51;94990.53;5065833;28;20056;-77
2022/04/23 08:44:13;;;;;;;26.02;16.05;;;;;;;11.42;66.24;94995.72;5067263;28;20052;-77
2022/04/23 08:46:41;;;;;;;27.23;15.80;;;;;;;11.44;66.27;94990.72;5067760;28;20041;-78
2022/04/23 08:49:11;;;;;;;23.95;15.32;;;;;;;11.45;65.96;94990.34;5067450;28;20048;-76
2022/04/23 08:51:39;;;;;;;24.73;16.02;;;;;;;11.43;66.62;94995.38;5067773;28;20051;-77
2022/04/23 08:54:08;;;;;;;28.05;15.85;;;;;;;11.44;66.21;94982.53;5067236;28;20056;-77
2022/04/23 08:56:39;;;;;;;25.05;15.48;;;;;;;11.49;66.12;94987.72;5067391;28;20040;-77
2022/04/23 08:59:07;;;;;;;26.23;15.73;;;;;;;11.51;65.69;94990.84;5066436;28;20060;-77
2022/04/23 09:01:35;;;;;;;24.77;15.57;;;;;;;11.59;65.48;94981.69;5066677;28;20071;-77
2022/04/23 09:04:03;;;;;;;28.33;16.25;;;;;;;11.75;65.94;94978.91;5067202;28;20052;-80
2022/04/23 09:06:36;;;;;;;22.73;14.75;;;;;;;11.79;64.76;94981.69;5066673;28;20045;-78
2022/04/23 09:09:12;;;;;;;26.85;15.65;;;;;;;11.69;64.81;94992.03;5066464;28;20706;-77
2022/04/23 09:11:40;;;;;;;23.73;15.55;;;;;;;11.64;64.91;94973.22;5064830;28;20074;-77
2022/04/23 09:14:08;;;;;;;27.05;16.05;;;;;;;11.71;65.42;94984.28;5066219;28;20059;-77
2022/04/23 09:25:11;;;;;;;27.73;15.68;;;;;;;11.83;65.30;94988.81;5066749;28;20309;-78
2022/04/23 09:27:40;;;;;;;24.45;15.23;;;;;;;11.84;64.21;94981.44;5066400;28;20045;-77
2022/04/23 09:30:08;;;;;;;25.25;16.15;;;;;;;11.84;64.45;94981.44;5066785;28;20132;-76
2022/04/23 09:32:36;;;;;;;23.40;14.73;;;;;;;11.93;64.36;94992.91;5066644;28;20055;-77
2022/04/23 09:35:08;;;;;;;27.63;15.80;;;;;;;11.93;64.52;94995.63;5067055;28;20139;-77
2022/04/23 09:40:22;;;;;;;25.65;15.40;;;;;;;11.89;64.25;95000.22;5066539;28;20769;-77
2022/04/23 09:42:57;;;;;;;22.85;14.77;;;;;;;11.91;64.45;94992.50;5064967;28;20507;-76
2022/04/23 09:45:26;;;;;;;28.50;15.55;;;;;;;11.97;64.44;94996.50;5068611;28;20572;-76
2022/04/23 09:47:54;;;;;;;23.92;14.57;;;;;;;11.90;63.58;94993.63;5073452;28;20044;-77
2022/04/23 09:50:21;;;;;;;23.85;14.70;;;;;;;11.83;64.90;94997.00;5069377;28;20109;-76
2022/04/23 09:52:50;;;;;;;25.00;14.65;;;;;;;11.89;64.16;95006.47;5067105;28;20057;-78
2022/04/23 09:55:19;;;;;;;28.58;15.95;;;;;;;11.98;63.69;95009.00;5055394;28;20056;-77
2022/04/23 09:57:48;;;;;;;31.02;16.02;;;;;;;11.89;63.99;95011.13;5066299;28;20052;-77
2022/04/23 10:00:15;;;;;;;28.65;16.20;;;;;;;11.76;64.62;95003.09;5065852;28;20059;-78
2022/04/23 10:02:45;;;;;;;28.35;16.45;;;;;;;11.82;64.41;95005.56;5066071;28;20055;-76
2022/04/23 10:05:15;;;;;;;33.17;18.45;;;;;;;11.76;65.60;95011.25;5066112;28;20053;-77
2022/04/23 10:07:46;;;;;;;30.23;18.75;;;;;;;11.75;66.01;95006.16;5048214;28;20054;-77
2022/04/23 10:10:17;;;;;;;36.60;19.27;;;;;;;11.77;65.55;95010.09;5065654;28;20045;-77
2022/04/23 10:12:45;;;;;;;33.95;20.00;;;;;;;11.72;65.98;95007.66;5063371;28;20687;-76
2022/04/23 10:15:14;;;;;;;34.55;18.73;;;;;;;11.73;65.83;95013.91;5066271;28;20484;-77
2022/04/23 10:17:43;;;;;;;34.65;19.40;;;;;;;11.62;65.90;95005.50;5065720;28;20049;-78
2022/04/23 10:20:20;;;;;;;35.38;19.30;;;;;;;11.59;66.07;95008.97;5065928;28;20676;-78
2022/04/23 10:22:58;;;;;;;31.98;17.73;;;;;;;11.63;66.34;95003.56;5065366;28;20071;-78
2022/04/23 10:25:34;;;;;;;35.03;18.55;;;;;;;11.79;67.22;94992.59;5065336;28;20068;-77
2022/04/23 10:28:02;;;;;;;30.65;17.58;;;;;;;11.77;65.29;94999.19;5066617;28;20576;-77
2022/04/23 10:30:31;;;;;;;31.85;17.10;;;;;;;11.97;66.11;94994.56;5065510;28;20719;-78
2022/04/23 10:32:57;;;;;;;31.77;18.02;;;;;;;12.00;65.19;94984.88;5067254;28;20063;-77
2022/04/23 10:35:34;;;;;;;32.90;18.23;;;;;;;12.20;65.08;94994.59;5065109;28;20049;-77
2022/04/23 10:38:19;;;;;;;28.42;16.83;;;;;;;12.27;63.73;94994.75;5066610;28;20048;-78
2022/04/23 10:40:51;;;;;;;28.10;16.65;;;;;;;12.42;63.65;94984.06;5066115;28;20044;-77
2022/04/23 10:43:19;;;;;;;29.27;16.98;;;;;;;12.57;64.59;94988.66;5062795;28;20050;-77
2022/04/23 10:45:48;;;;;;;28.85;16.73;;;;;;;12.63;62.73;94989.13;5066728;28;20050;-78
2022/04/23 10:48:45;;;;;;;55.45;20.27;;;;;;;12.63;62.42;94983.66;5064499;28;20050;-77
2022/04/23 10:51:16;;;;;;;49.10;18.95;;;;;;;12.72;62.38;94984.22;5048816;28;20049;-77
2022/04/23 10:53:55;;;;;;;32.58;17.52;;;;;;;12.83;62.25;94979.72;5066270;28;20056;-77
2022/04/23 10:56:23;;;;;;;47.35;18.63;;;;;;;12.85;61.79;94974.69;5065699;28;20048;-77
2022/04/23 10:58:52;;;;;;;40.25;17.95;;;;;;;12.84;61.53;94972.31;5066293;28;20564;-77
2022/04/23 11:01:21;;;;;;;62.83;20.35;;;;;;;12.87;61.78;94977.06;5064770;28;20059;-78
2022/04/23 11:04:11;;;;;;;45.13;18.55;;;;;;;12.92;61.72;94974.00;5066915;28;20087;-77
2022/04/23 11:12:32;;;;;;;44.95;19.35;;;;;;;12.93;61.08;94978.31;5020764;28;20449;-76
2022/04/23 11:15:00;;;;;;;49.85;19.70;;;;;;;12.96;61.39;94983.06;5065501;28;20056;-77
2022/04/23 11:17:48;;;;;;;52.83;18.25;;;;;;;12.91;60.37;94984.16;5065721;28;20109;-76
2022/04/23 11:20:29;;;;;;;64.43;20.92;;;;;;;12.92;61.97;94980.25;5064999;28;20048;-78
2022/04/23 11:22:56;;;;;;;69.60;18.42;;;;;;;13.00;61.80;94976.50;5066103;28;20543;-79
2022/04/23 11:25:24;;;;;;;45.92;17.70;;;;;;;13.07;61.65;94975.81;5065958;28;20245;-78
2022/04/23 11:27:53;;;;;;;48.08;19.30;;;;;;;13.03;60.49;94972.22;5065843;28;20683;-77
2022/04/23 11:30:29;;;;;;;55.97;19.92;;;;;;;13.11;60.21;94965.72;5066573;28;20048;-77
2022/04/23 11:33:08;;;;;;;46.85;18.25;;;;;;;13.12;60.41;94961.84;5066050;28;20045;-78
2022/04/23 11:35:36;;;;;;;55.35;18.63;;;;;;;13.24;60.66;94964.38;5067562;28;20071;-77
2022/04/23 11:38:02;;;;;;;39.75;18.63;;;;;;;13.26;60.65;94970.28;5065430;28;20053;-78
2022/04/23 11:40:29;;;;;;;46.45;20.35;;;;;;;13.21;60.86;94970.59;5065960;28;20048;-78
2022/04/23 11:42:57;;;;;;;52.17;18.38;;;;;;;13.25;60.20;94965.16;5065987;28;20052;-78
2022/04/23 11:45:23;;;;;;;40.72;20.67;;;;;;;13.25;60.53;94968.69;5072619;28;20052;-78
2022/04/23 11:47:50;;;;;;;57.63;18.42;;;;;;;13.28;60.26;94978.09;5074181;28;20056;-78
2022/04/23 11:50:18;;;;;;;74.35;19.40;;;;;;;13.28;59.59;94978.88;5065495;28;20059;-78